Time;durP1;ratioP1;P1;durP2;ratioP2;P2;SDS_P1;SDS_P2;PMS_P1;PMS_P2;Temp;Humidity;BMP_temperature;BMP_pressure;BME280_temperature;BME280_humidity;BME280_pressure;Samples;Min_cycle;Max_cycle;Signal;HPM_P1;HPM_P2
2022/01/01 00:00:04;;;;;;;55.05;38.85;;;;;;;9.82;100.00;99678.41;1785963;80;25619;-71
2022/01/01 00:02:32;;;;;;;52.35;37.35;;;;;;;9.82;100.00;99677.84;1786039;79;25890;-71
2022/01/01 00:04:59;;;;;;;56.75;39.50;;;;;;;9.82;100.00;99681.11;1785916;80;25436;-70
2022/01/01 00:07:26;;;;;;;48.00;34.25;;;;;;;9.82;100.00;99685.17;1811920;78;25536;-69
2022/01/01 00:09:52;;;;;;;43.85;29.77;;;;;;;9.79;100.00;99683.91;1812568;79;25723;-69
2022/01/01 00:12:19;;;;;;;37.85;27.52;;;;;;;9.81;100.00;99685.73;1812716;79;25571;-69
2022/01/01 00:14:45;;;;;;;32.67;25.60;;;;;;;9.82;100.00;99690.57;1812721;79;27919;-70
2022/01/01 00:17:12;;;;;;;28.92;20.02;;;;;;;9.81;100.00;99691.13;1812685;78;25574;-70
2022/01/01 00:19:39;;;;;;;28.75;19.98;;;;;;;9.82;100.00;99691.36;1812697;79;25570;-70
2022/01/01 00:22:07;;;;;;;20.75;16.07;;;;;;;9.83;100.00;99686.20;1812704;79;25607;-69
2022/01/01 00:24:35;;;;;;;22.50;16.60;;;;;;;9.86;100.00;99695.59;1812873;79;25182;-69
2022/01/01 00:27:01;;;;;;;23.98;16.77;;;;;;;9.87;100.00;99697.16;1812710;79;27885;-69
2022/01/01 00:29:28;;;;;;;16.60;13.05;;;;;;;9.87;100.00;99706.61;1787597;79;25457;-69
2022/01/01 00:31:54;;;;;;;15.70;11.00;;;;;;;9.86;100.00;99707.18;1815018;79;25489;-70
2022/01/01 00:34:21;;;;;;;13.80;10.78;;;;;;;9.87;100.00;99715.50;1778447;79;25616;-69
2022/01/01 00:36:47;;;;;;;12.65;10.35;;;;;;;9.87;100.00;99714.72;1815044;78;25444;-70
2022/01/01 00:39:14;;;;;;;15.80;10.90;;;;;;;9.89;100.00;99719.24;1815005;78;27370;-69
2022/01/01 00:41:41;;;;;;;14.30;10.25;;;;;;;9.86;100.00;99728.01;1814883;79;25896;-69
2022/01/01 00:44:08;;;;;;;14.03;11.35;;;;;;;9.88;100.00;99735.23;1815024;79;25604;-70
2022/01/01 00:46:35;;;;;;;13.90;10.75;;;;;;;9.89;100.00;99736.80;1815010;79;25813;-70
2022/01/01 00:49:01;;;;;;;13.85;11.15;;;;;;;9.90;100.00;99733.00;1815066;79;25476;-70
2022/01/01 00:51:28;;;;;;;13.85;11.18;;;;;;;9.89;100.00;99733.56;1814991;79;27374;-70
2022/01/01 00:53:54;;;;;;;11.05;8.25;;;;;;;9.89;100.00;99744.91;1814973;78;25497;-70
2022/01/01 00:56:21;;;;;;;11.63;8.63;;;;;;;9.88;100.00;99750.09;1815058;78;25191;-71
2022/01/01 00:58:47;;;;;;;10.68;7.20;;;;;;;9.86;100.00;99750.97;1814871;79;26210;-71
2022/01/01 01:01:14;;;;;;;11.95;9.00;;;;;;;9.85;100.00;99756.12;1814831;79;25541;-71
2022/01/01 01:03:40;;;;;;;9.95;7.50;;;;;;;9.82;100.00;99767.55;1779756;79;26812;-71
2022/01/01 01:06:10;;;;;;;9.88;7.22;;;;;;;9.80;100.00;99769.78;1814741;79;25588;-71
2022/01/01 01:08:36;;;;;;;10.20;6.95;;;;;;;9.80;100.00;99773.83;1814856;78;25393;-71
2022/01/01 01:11:07;;;;;;;10.23;6.87;;;;;;;9.77;100.00;99780.64;1815016;79;25780;-71
2022/01/01 01:13:32;;;;;;;10.08;6.62;;;;;;;9.77;100.00;99790.09;1814248;79;25540;-70
2022/01/01 01:15:58;;;;;;;11.03;6.97;;;;;;;9.75;100.00;99795.59;1814974;79;27405;-70
2022/01/01 01:18:25;;;;;;;10.28;6.17;;;;;;;9.73;100.00;99794.55;1814900;79;25572;-70
2022/01/01 01:20:52;;;;;;;9.13;6.87;;;;;;;9.73;100.00;99791.84;1814948;79;25532;-70
2022/01/01 01:23:18;;;;;;;12.07;6.78;;;;;;;9.73;100.00;99791.84;1814877;79;26385;-71
2022/01/01 01:25:44;;;;;;;10.28;6.58;;;;;;;9.71;100.00;99799.48;1814963;78;25555;-71
2022/01/01 01:28:14;;;;;;;9.35;6.62;;;;;;;9.71;100.00;99799.48;1815064;79;27322;-71
2022/01/01 01:30:42;;;;;;;10.30;6.75;;;;;;;9.69;100.00;99807.89;1815040;79;25599;-71
2022/01/01 01:33:10;;;;;;;9.43;6.03;;;;;;;9.68;100.00;99811.69;1815138;78;25624;-72
2022/01/01 01:35:37;;;;;;;7.87;5.95;;;;;;;9.68;100.00;99811.69;1815096;79;25746;-70
2022/01/01 01:38:04;;;;;;;9.45;6.12;;;;;;;9.67;100.00;99806.59;1815154;79;25413;-70
2022/01/01 01:40:31;;;;;;;8.63;5.87;;;;;;;9.65;100.00;99815.04;1780722;80;27375;-71
2022/01/01 01:42:59;;;;;;;9.83;7.37;;;;;;;9.66;100.00;99809.08;1781232;80;27204;-71
2022/01/01 01:45:28;;;;;;;8.98;7.90;;;;;;;9.66;100.00;99811.78;1781396;80;25421;-71
2022/01/01 01:47:54;;;;;;;11.30;8.43;;;;;;;9.63;100.00;99815.89;1780945;80;25696;-71
2022/01/01 01:50:21;;;;;;;12.30;8.60;;;;;;;9.62;100.00;99816.20;1781404;80;25439;-71
2022/01/01 01:52:54;;;;;;;12.30;9.10;;;;;;;9.61;100.00;99818.67;1781339;80;27289;-71
2022/01/01 01:55:21;;;;;;;11.40;8.50;;;;;;;9.60;100.00;99815.72;1781303;80;25577;-71
2022/01/01 01:57:48;;;;;;;10.32;7.70;;;;;;;9.57;100.00;99821.20;1781325;80;25472;-70
2022/01/01 02:00:53;;;;;;;11.10;7.62;;;;;;;9.56;100.00;99825.00;1781249;80;25595;-70
2022/01/01 02:02:56;;;;;;;11.93;7.80;;;;;;;9.54;100.00;99829.93;1776927;80;25228;-69
2022/01/01 02:05:23;;;;;;;12.15;8.25;;;;;;;9.52;100.00;99829.45;1781346;80;27366;-69
2022/01/01 02:07:50;;;;;;;11.50;8.18;;;;;;;9.49;100.00;99822.77;1781219;80;25817;-69
2022/01/01 02:10:18;;;;;;;10.65;7.87;;;;;;;9.48;100.00;99822.53;1781307;80;25543;-69
2022/01/01 02:12:51;;;;;;;9.20;7.25;;;;;;;9.46;100.00;99830.12;1781301;80;25606;-69
2022/01/01 02:15:46;;;;;;;12.53;8.23;;;;;;;9.45;100.00;99834.48;1779430;80;25450;-71
2022/01/01 02:18:06;;;;;;;12.55;8.50;;;;;;;9.45;100.00;99839.89;1779888;79;28345;-69
2022/01/01 02:20:33;;;;;;;11.85;8.55;;;;;;;9.43;100.00;99834.83;1781161;80;25607;-69
2022/01/01 02:23:01;;;;;;;10.80;8.18;;;;;;;9.43;100.00;99840.76;1781418;80;25622;-71
2022/01/01 02:25:30;;;;;;;10.20;7.78;;;;;;;9.41;100.00;99847.81;1781307;80;26237;-70
2022/01/01 02:27:56;;;;;;;12.40;8.43;;;;;;;9.39;100.00;99845.20;1781344;80;25586;-70
2022/01/01 02:30:24;;;;;;;10.53;8.38;;;;;;;9.38;100.00;99850.34;1781220;80;27320;-70
2022/01/01 02:32:51;;;;;;;11.57;8.48;;;;;;;9.37;100.00;99854.17;1781239;80;25422;-70
2022/01/01 02:35:18;;;;;;;9.33;7.65;;;;;;;9.35;100.00;99863.36;1781310;80;25382;-70
2022/01/01 02:37:45;;;;;;;11.70;9.13;;;;;;;9.36;100.00;99861.45;1781244;80;25586;-70
2022/01/01 02:40:14;;;;;;;12.13;8.40;;;;;;;9.35;100.00;99871.46;1781265;80;25600;-70
2022/01/01 02:42:44;;;;;;;11.90;8.18;;;;;;;9.34;100.00;99865.02;1781303;80;27970;-70
2022/01/01 02:45:14;;;;;;;10.43;8.05;;;;;;;9.33;100.00;99862.06;1780985;80;25457;-71
2022/01/01 02:47:42;;;;;;;12.53;7.60;;;;;;;9.33;100.00;99870.16;1781224;80;25432;-71
2022/01/01 02:50:10;;;;;;;11.33;8.30;;;;;;;9.31;100.00;99865.10;1781243;80;25615;-71
2022/01/01 02:52:36;;;;;;;8.38;7.05;;;;;;;9.29;100.00;99867.30;1754737;80;25583;-72
2022/01/01 02:55:05;;;;;;;10.10;6.60;;;;;;;9.27;100.00;99866.81;1781298;80;27319;-71
2022/01/01 02:57:32;;;;;;;9.43;6.93;;;;;;;9.25;100.00;99870.94;1781428;80;25634;-71
2022/01/01 02:59:59;;;;;;;9.60;6.55;;;;;;;9.22;100.00;99878.30;1781252;80;25587;-71
2022/01/01 03:02:26;;;;;;;11.43;6.90;;;;;;;9.19;100.00;99876.22;1781244;80;25632;-72
2022/01/01 03:04:52;;;;;;;10.15;7.35;;;;;;;9.17;100.00;99875.17;1755119;80;25623;-72
2022/01/01 03:07:19;;;;;;;10.23;6.70;;;;;;;9.17;100.00;99879.22;1781295;80;27321;-70
2022/01/01 03:09:46;;;;;;;11.43;8.10;;;;;;;9.16;100.00;99887.88;1781264;80;25417;-71
2022/01/01 03:12:16;;;;;;;12.13;8.68;;;;;;;9.16;100.00;99898.67;1781279;80;25651;-71
2022/01/01 03:14:44;;;;;;;11.78;9.18;;;;;;;9.15;100.00;99899.77;1781201;80;26307;-71
2022/01/01 03:17:11;;;;;;;13.22;9.90;;;;;;;9.14;100.00;99895.49;1745767;80;25647;-71
2022/01/01 03:19:38;;;;;;;13.78;10.10;;;;;;;9.13;100.00;99903.89;1781285;80;27354;-71
2022/01/01 03:22:05;;;;;;;12.75;9.75;;;;;;;9.10;100.00;99903.94;1781140;80;25522;-71
2022/01/01 03:24:33;;;;;;;14.00;9.30;;;;;;;9.10;100.00;99913.95;1781281;80;25427;-71
2022/01/01 03:27:01;;;;;;;13.43;9.35;;;;;;;9.09;100.00;99916.39;1781289;80;25680;-71
2022/01/01 03:29:30;;;;;;;14.07;9.98;;;;;;;9.07;100.00;99912.65;1781255;80;25373;-72
2022/01/01 03:31:57;;;;;;;13.20;9.23;;;;;;;9.07;100.00;99915.91;1781262;80;27333;-72
2022/01/01 03:34:24;;;;;;;12.98;9.48;;;;;;;9.05;100.00;99921.61;1781153;80;25407;-71
2022/01/01 03:36:50;;;;;;;14.03;10.25;;;;;;;9.03;100.00;99921.69;1781194;80;25451;-71
2022/01/01 03:39:17;;;;;;;14.73;9.30;;;;;;;9.02;100.00;99920.08;1781231;80;26409;-71
2022/01/01 03:41:44;;;;;;;15.13;10.63;;;;;;;9.01;100.00;99923.87;1781275;80;25595;-70
2022/01/01 03:44:11;;;;;;;16.37;10.32;;;;;;;9.00;100.00;99923.64;1781224;80;27285;-71
2022/01/01 03:46:37;;;;;;;16.48;11.00;;;;;;;8.99;100.00;99920.16;1781152;80;25615;-70
2022/01/01 03:49:04;;;;;;;13.48;9.70;;;;;;;9.00;100.00;99923.64;1781262;80;25581;-70
2022/01/01 03:51:31;;;;;;;13.13;10.38;;;;;;;8.99;100.00;99930.95;1781205;80;25643;-71
2022/01/01 03:53:57;;;;;;;12.98;8.68;;;;;;;8.98;100.00;99930.69;1781275;80;25387;-71
2022/01/01 03:56:24;;;;;;;10.98;8.25;;;;;;;8.97;100.00;99931.25;1781233;80;27323;-71
2022/01/01 03:58:50;;;;;;;12.85;8.43;;;;;;;8.96;100.00;99944.48;1781162;80;25386;-71
2022/01/01 04:01:17;;;;;;;12.33;8.03;;;;;;;8.95;100.00;99949.62;1781187;80;25504;-71
2022/01/01 04:03:44;;;;;;;12.03;8.20;;;;;;;8.95;100.00;99949.62;1781161;80;25639;-71
2022/01/01 04:06:10;;;;;;;9.70;7.65;;;;;;;8.95;100.00;99957.71;1781266;80;25441;-71
2022/01/01 04:08:37;;;;;;;11.70;7.78;;;;;;;8.94;100.00;99964.23;1781239;80;27305;-71
2022/01/01 04:11:03;;;;;;;11.75;7.45;;;;;;;8.93;100.00;99976.11;1781183;80;25539;-71
2022/01/01 04:13:30;;;;;;;10.00;7.10;;;;;;;8.92;100.00;99981.80;1781245;80;25447;-71
2022/01/01 04:15:56;;;;;;;10.25;7.10;;;;;;;8.90;100.00;99985.36;1781205;80;25802;-71
2022/01/01 04:18:30;;;;;;;11.70;7.15;;;;;;;8.88;100.00;99984.88;1781222;80;25549;-71
2022/01/01 04:20:54;;;;;;;8.85;6.80;;;;;;;8.86;100.00;99981.69;1780666;80;27326;-71
2022/01/01 04:23:23;;;;;;;9.70;7.22;;;;;;;8.83;100.00;99976.91;1781127;80;25571;-71
2022/01/01 04:25:49;;;;;;;13.40;7.47;;;;;;;8.82;100.00;99980.16;1781083;80;25580;-70
2022/01/01 04:28:15;;;;;;;10.00;7.00;;;;;;;8.79;100.00;99984.25;1781132;80;27745;-71
2022/01/01 04:30:42;;;;;;;9.38;6.58;;;;;;;8.79;100.00;99992.90;1781172;80;25415;-72
2022/01/01 04:33:08;;;;;;;11.40;6.78;;;;;;;8.77;100.00;99994.55;1792632;79;27823;-71
2022/01/01 04:35:35;;;;;;;11.63;6.70;;;;;;;8.76;100.00;99991.59;1796906;79;25575;-71
2022/01/01 04:38:01;;;;;;;10.78;6.35;;;;;;;8.75;100.00;99995.94;1782859;80;25374;-71
2022/01/01 04:40:28;;;;;;;10.00;6.25;;;;;;;8.75;100.00;99992.71;1782906;80;25684;-71
2022/01/01 04:42:55;;;;;;;12.68;7.25;;;;;;;8.74;100.00;99985.71;1782907;80;25368;-71
2022/01/01 04:45:21;;;;;;;9.90;5.67;;;;;;;8.72;100.00;99993.87;1782868;80;28339;-71
2022/01/01 04:47:48;;;;;;;10.82;7.75;;;;;;;8.72;100.00;99996.01;1782763;80;25718;-71
2022/01/01 04:50:14;;;;;;;10.68;6.42;;;;;;;8.72;100.00;99992.52;1782855;80;25459;-71
2022/01/01 04:52:42;;;;;;;8.48;5.95;;;;;;;8.70;100.00;99989.31;1782819;80;26355;-71
2022/01/01 04:55:09;;;;;;;9.50;6.28;;;;;;;8.70;100.00;99996.05;1782888;80;25674;-71
2022/01/01 04:57:36;;;;;;;8.90;6.12;;;;;;;8.68;100.00;99988.27;1782970;80;27328;-70
2022/01/01 05:00:05;;;;;;;12.43;5.62;;;;;;;8.68;100.00;99996.91;1782822;80;25726;-70
2022/01/01 05:02:31;;;;;;;10.23;5.97;;;;;;;8.67;100.00;100006.12;1782846;80;25588;-70
2022/01/01 05:04:57;;;;;;;10.00;5.55;;;;;;;8.66;100.00;100013.95;1782792;80;25689;-70
2022/01/01 05:07:24;;;;;;;6.97;5.45;;;;;;;8.65;100.00;100019.90;1756472;80;25581;-70
2022/01/01 05:09:51;;;;;;;8.98;5.22;;;;;;;8.66;100.00;100011.25;1782847;80;28004;-70
2022/01/01 05:12:17;;;;;;;6.25;4.75;;;;;;;8.63;100.00;100013.98;1782787;80;25622;-70
2022/01/01 05:14:44;;;;;;;7.40;5.50;;;;;;;8.63;100.00;100017.24;1782643;80;25528;-70
2022/01/01 05:17:12;;;;;;;7.87;4.92;;;;;;;8.60;100.00;100014.06;1782355;80;25617;-70
2022/01/01 05:19:38;;;;;;;6.67;4.67;;;;;;;8.60;100.00;100034.28;1782912;80;25395;-71
2022/01/01 05:22:05;;;;;;;6.30;4.55;;;;;;;8.58;100.00;100035.13;1756408;80;27214;-70
2022/01/01 05:24:31;;;;;;;10.08;5.05;;;;;;;8.57;100.00;100051.05;1782524;80;25655;-71
2022/01/01 05:26:58;;;;;;;6.08;4.20;;;;;;;8.54;100.00;100054.34;1782856;80;25575;-70
2022/01/01 05:29:24;;;;;;;5.62;4.12;;;;;;;8.51;100.00;100044.72;1782802;80;25788;-70
2022/01/01 05:31:51;;;;;;;5.70;3.95;;;;;;;8.48;100.00;100055.56;1783907;80;25668;-70
2022/01/01 05:34:17;;;;;;;5.90;4.70;;;;;;;8.46;100.00;100054.25;1761392;80;27728;-70
2022/01/01 05:36:44;;;;;;;5.97;3.90;;;;;;;8.43;100.00;100053.50;1785832;80;25648;-70
2022/01/01 05:39:11;;;;;;;6.65;4.08;;;;;;;8.42;100.00;100056.72;1785919;80;25706;-70
2022/01/01 05:41:37;;;;;;;4.92;3.72;;;;;;;8.40;100.00;100065.66;1785872;80;25670;-72
2022/01/01 05:44:04;;;;;;;11.78;3.77;;;;;;;8.37;100.00;100073.78;1786010;80;25515;-71
2022/01/01 05:46:32;;;;;;;6.10;4.15;;;;;;;8.36;100.00;100084.33;1786098;80;27322;-69
2022/01/01 05:48:59;;;;;;;5.80;3.83;;;;;;;8.35;100.00;100071.94;1785845;80;25552;-70
2022/01/01 05:51:25;;;;;;;4.22;3.60;;;;;;;8.32;100.00;100086.56;1785920;80;25547;-70
2022/01/01 05:53:52;;;;;;;6.33;4.05;;;;;;;8.29;100.00;100085.28;1785848;80;26332;-70
2022/01/01 05:56:19;;;;;;;6.67;3.65;;;;;;;8.27;100.00;100081.27;1785890;80;25362;-70
2022/01/01 05:58:45;;;;;;;5.42;3.45;;;;;;;8.25;100.00;100083.47;1785818;80;27419;-70
2022/01/01 06:01:12;;;;;;;6.45;3.95;;;;;;;8.20;100.00;100087.84;1785742;80;25674;-70
2022/01/01 06:03:38;;;;;;;4.87;3.70;;;;;;;8.20;100.00;100095.13;1785901;80;25564;-70
2022/01/01 06:06:05;;;;;;;5.03;3.85;;;;;;;8.18;100.00;100100.03;1785791;80;25629;-70
2022/01/01 06:08:31;;;;;;;4.72;3.75;;;;;;;8.16;100.00;100108.96;1785883;80;25604;-70
2022/01/01 06:10:58;;;;;;;5.67;3.85;;;;;;;8.15;100.00;100105.45;1785860;80;27359;-70
2022/01/01 06:13:25;;;;;;;6.25;4.00;;;;;;;8.14;100.00;100099.01;1785785;80;25609;-70
2022/01/01 06:15:51;;;;;;;6.15;3.80;;;;;;;8.11;100.00;100108.50;1786056;80;25593;-70
2022/01/01 06:18:18;;;;;;;5.45;4.22;;;;;;;8.10;100.00;100106.88;1786017;80;25627;-70
2022/01/01 06:20:45;;;;;;;5.58;3.70;;;;;;;8.10;100.00;100118.22;1785988;80;25600;-70
2022/01/01 06:23:12;;;;;;;5.60;3.90;;;;;;;8.07;100.00;100123.66;1785960;80;27922;-70
2022/01/01 06:25:38;;;;;;;6.12;4.35;;;;;;;8.05;100.00;100131.22;1785930;80;25599;-70
2022/01/01 06:28:05;;;;;;;6.70;4.62;;;;;;;8.02;100.00;100117.81;1785969;80;25778;-70
2022/01/01 06:30:33;;;;;;;6.72;4.45;;;;;;;8.01;100.00;100130.22;1785955;80;25735;-70
2022/01/01 06:33:05;;;;;;;6.25;4.47;;;;;;;8.00;100.00;100123.23;1785968;80;25547;-69
2022/01/01 06:35:31;;;;;;;6.53;4.20;;;;;;;7.99;100.00;100126.48;1780393;80;27329;-69
2022/01/01 06:37:58;;;;;;;6.97;4.72;;;;;;;7.97;100.00;100124.63;1785875;80;25770;-69
2022/01/01 06:40:25;;;;;;;5.55;4.50;;;;;;;7.97;100.00;100129.23;1786055;80;25515;-69
2022/01/01 06:42:51;;;;;;;6.10;4.30;;;;;;;7.97;100.00;100132.71;1785888;80;25631;-69
2022/01/01 06:45:18;;;;;;;6.55;4.72;;;;;;;7.98;100.00;100137.55;1786024;80;25513;-71
2022/01/01 06:47:45;;;;;;;7.42;4.80;;;;;;;7.99;100.00;100137.80;1785969;80;27481;-70
2022/01/01 06:50:11;;;;;;;5.83;4.50;;;;;;;7.97;100.00;100140.00;1785901;80;25390;-70
2022/01/01 06:52:45;;;;;;;9.28;5.30;;;;;;;7.95;100.00;100136.78;1786027;80;25404;-70
2022/01/01 06:55:13;;;;;;;6.92;4.53;;;;;;;7.95;100.00;100142.16;1785972;80;26214;-70
2022/01/01 06:57:41;;;;;;;9.48;5.28;;;;;;;7.94;100.00;100140.03;1785978;80;25596;-70
2022/01/01 07:00:10;;;;;;;8.75;5.33;;;;;;;7.94;100.00;100147.31;1785944;80;27340;-70
2022/01/01 07:02:44;;;;;;;8.18;5.10;;;;;;;7.94;100.00;100147.31;1785910;80;25626;-70
2022/01/01 07:05:12;;;;;;;5.53;4.58;;;;;;;7.93;100.00;100158.62;1785536;80;25398;-69
2022/01/01 07:07:39;;;;;;;6.05;4.42;;;;;;;7.94;100.00;100160.78;1785926;80;25645;-69
2022/01/01 07:10:09;;;;;;;7.70;5.00;;;;;;;7.96;100.00;100164.77;1786039;80;25618;-71
2022/01/01 07:12:38;;;;;;;8.55;5.30;;;;;;;7.96;100.00;100168.02;1785947;80;28051;-71
2022/01/01 07:15:08;;;;;;;6.65;4.53;;;;;;;7.96;100.00;100168.02;1786154;80;25370;-71
2022/01/01 07:17:34;;;;;;;6.75;5.10;;;;;;;7.95;100.00;100164.53;1786122;80;25634;-70
2022/01/01 07:20:01;;;;;;;6.10;4.70;;;;;;;7.96;100.00;100168.02;1785922;80;25808;-70
2022/01/01 07:22:28;;;;;;;7.00;4.90;;;;;;;7.97;100.00;100172.33;1785928;80;25455;-71
2022/01/01 07:24:55;;;;;;;6.00;4.60;;;;;;;7.96;100.00;100174.75;1785849;80;27321;-71
2022/01/01 07:27:21;;;;;;;5.15;4.65;;;;;;;7.97;100.00;100174.46;1785814;80;25449;-71
2022/01/01 07:29:48;;;;;;;4.50;3.80;;;;;;;7.96;100.00;100180.14;1785957;80;25444;-71
2022/01/01 07:32:14;;;;;;;6.33;4.90;;;;;;;7.97;100.00;100181.19;1785834;80;25666;-71
2022/01/01 07:34:42;;;;;;;5.58;4.20;;;;;;;8.00;100.00;100182.48;1785998;80;25539;-70
2022/01/01 07:37:09;;;;;;;4.90;4.25;;;;;;;8.00;100.00;100182.48;1785982;80;27339;-70
2022/01/01 07:39:37;;;;;;;9.00;4.53;;;;;;;8.01;100.00;100180.84;1785881;80;26088;-70
2022/01/01 07:42:05;;;;;;;5.40;4.53;;;;;;;8.01;100.00;100179.50;1785958;80;25434;-71
2022/01/01 07:44:32;;;;;;;7.53;4.83;;;;;;;8.01;100.00;100176.80;1785925;80;25679;-71
2022/01/01 07:46:58;;;;;;;6.70;5.17;;;;;;;8.02;100.00;100180.31;1785921;80;25548;-71
2022/01/01 07:49:25;;;;;;;13.00;5.60;;;;;;;8.04;100.00;100190.25;1786013;80;25779;-71
2022/01/01 07:51:52;;;;;;;5.78;5.00;;;;;;;8.06;100.00;100186.70;1786120;80;25174;-71
2022/01/01 07:54:18;;;;;;;9.03;5.42;;;;;;;8.07;100.00;100183.45;1786020;80;25437;-70
2022/01/01 07:56:45;;;;;;;7.33;5.78;;;;;;;8.11;100.00;100191.22;1785868;80;25739;-71
2022/01/01 07:59:11;;;;;;;9.30;5.90;;;;;;;8.12;100.00;100199.53;1785964;80;25662;-70
2022/01/01 08:01:40;;;;;;;8.18;6.05;;;;;;;8.15;100.00;100194.91;1785922;80;27330;-72
2022/01/01 08:04:07;;;;;;;7.85;5.67;;;;;;;8.16;100.00;100203.26;1785788;80;25743;-70
2022/01/01 08:06:34;;;;;;;8.30;5.92;;;;;;;8.17;100.00;100202.14;1785910;80;25446;-70
2022/01/01 08:09:00;;;;;;;6.83;5.45;;;;;;;8.17;100.00;100204.31;1787270;80;26198;-70
2022/01/01 08:11:27;;;;;;;13.65;8.93;;;;;;;8.20;100.00;100202.36;1785951;80;25628;-70
2022/01/01 08:13:54;;;;;;;7.65;6.20;;;;;;;8.21;100.00;100207.22;1787385;80;28088;-70
2022/01/01 08:16:21;;;;;;;6.55;4.37;;;;;;;8.22;100.00;100213.66;1785827;80;25394;-71
2022/01/01 08:18:48;;;;;;;4.65;3.95;;;;;;;8.21;100.00;100216.09;1785950;80;25390;-70
2022/01/01 08:21:15;;;;;;;5.15;3.37;;;;;;;8.23;100.00;100222.53;1761295;80;25719;-70
2022/01/01 08:23:42;;;;;;;5.80;4.03;;;;;;;8.24;100.00;100214.72;1785912;80;25559;-71
2022/01/01 08:26:08;;;;;;;5.70;4.30;;;;;;;8.26;100.00;100213.05;1785879;80;27433;-70
2022/01/01 08:28:35;;;;;;;7.08;4.33;;;;;;;8.27;100.00;100220.05;1785761;80;25621;-71
2022/01/01 08:31:01;;;;;;;7.62;4.37;;;;;;;8.29;100.00;100219.20;1785649;80;25391;-72
2022/01/01 08:33:28;;;;;;;5.53;3.37;;;;;;;8.31;100.00;100226.44;1785793;80;25547;-70
2022/01/01 08:35:55;;;;;;;8.20;4.25;;;;;;;8.32;100.00;100231.53;1761443;80;25586;-69
2022/01/01 08:38:21;;;;;;;5.05;4.30;;;;;;;8.36;100.00;100227.70;1785912;80;28052;-72
2022/01/01 08:40:48;;;;;;;7.92;4.40;;;;;;;8.40;100.00;100234.91;1761510;80;25632;-71
2022/01/01 08:43:14;;;;;;;6.60;3.95;;;;;;;8.41;99.99;100231.13;1785936;80;25377;-71
2022/01/01 08:45:41;;;;;;;4.80;3.80;;;;;;;8.45;100.00;100235.41;1785973;80;25674;-71
2022/01/01 08:48:08;;;;;;;6.08;3.98;;;;;;;8.47;100.00;100239.16;1786024;80;25449;-71
2022/01/01 08:50:35;;;;;;;4.65;3.30;;;;;;;8.48;99.80;100240.21;1786001;80;27487;-71
2022/01/01 08:53:02;;;;;;;5.33;3.77;;;;;;;8.48;99.56;100242.91;1785898;80;25441;-71
2022/01/01 08:55:29;;;;;;;5.80;3.90;;;;;;;8.49;99.68;100238.30;1785943;80;25606;-71
2022/01/01 08:57:56;;;;;;;4.10;3.33;;;;;;;8.52;99.78;100251.99;1785826;80;25658;-71
2022/01/01 09:00:22;;;;;;;5.17;3.70;;;;;;;8.53;99.59;100240.65;1785879;80;25559;-69
2022/01/01 09:02:48;;;;;;;4.55;3.62;;;;;;;8.56;99.68;100236.02;1785823;80;27502;-69
2022/01/01 09:05:15;;;;;;;4.10;3.40;;;;;;;8.59;99.84;100236.78;1785776;80;25632;-69
2022/01/01 09:07:42;;;;;;;6.03;3.65;;;;;;;8.66;100.00;100240.44;1785908;80;25525;-69
2022/01/01 09:10:09;;;;;;;5.47;3.72;;;;;;;8.72;99.61;100241.40;1785804;80;25827;-69
2022/01/01 09:12:36;;;;;;;6.28;3.47;;;;;;;8.76;99.81;100237.56;1785904;80;25603;-69
2022/01/01 09:15:03;;;;;;;3.87;3.52;;;;;;;8.82;99.48;100240.42;1785881;80;27301;-70
2022/01/01 09:17:29;;;;;;;12.75;3.90;;;;;;;8.86;99.39;100244.11;1785832;80;25591;-69
2022/01/01 09:19:56;;;;;;;5.30;3.87;;;;;;;8.89;99.06;100244.87;1761140;80;25653;-69
2022/01/01 09:22:22;;;;;;;4.17;3.40;;;;;;;8.96;99.55;100246.62;1785958;80;25639;-69
2022/01/01 09:24:49;;;;;;;5.90;3.90;;;;;;;9.06;99.22;100247.50;1785927;80;25617;-69
2022/01/01 09:27:16;;;;;;;5.83;3.90;;;;;;;9.13;99.43;100250.63;1785837;80;27871;-69
2022/01/01 09:29:43;;;;;;;4.37;3.72;;;;;;;9.17;99.17;100250.27;1796225;77;25378;-69
2022/01/01 09:32:10;;;;;;;4.83;4.20;;;;;;;9.18;98.86;100243.78;1818277;78;25388;-69
2022/01/01 09:34:37;;;;;;;5.08;4.53;;;;;;;9.21;98.79;100245.06;1815087;78;25836;-69
2022/01/01 09:37:05;;;;;;;6.35;5.70;;;;;;;9.22;98.41;100250.72;1814998;79;25535;-69
2022/01/01 09:39:31;;;;;;;6.08;4.72;;;;;;;9.20;97.89;100249.67;1814896;79;27323;-69
2022/01/01 09:42:02;;;;;;;6.22;5.00;;;;;;;9.19;97.69;100252.11;1787585;79;25875;-70
2022/01/01 09:44:31;;;;;;;8.83;5.42;;;;;;;9.17;97.65;100257.02;1815063;78;25425;-69
2022/01/01 09:46:57;;;;;;;6.53;5.30;;;;;;;9.16;97.77;100258.92;1815066;78;25627;-69
2022/01/01 09:49:26;;;;;;;6.60;5.60;;;;;;;9.13;97.45;100262.21;1815120;79;25530;-69
2022/01/01 09:51:52;;;;;;;5.70;5.10;;;;;;;9.12;97.56;100259.25;1815175;79;27728;-71
2022/01/01 09:54:19;;;;;;;9.38;7.17;;;;;;;9.12;97.74;100258.46;1815042;79;25679;-69
2022/01/01 09:56:45;;;;;;;6.75;5.70;;;;;;;9.11;97.68;100259.58;1815074;79;25564;-69
2022/01/01 09:59:14;;;;;;;9.40;6.37;;;;;;;9.12;97.79;100259.81;1815067;79;26198;-69
2022/01/01 10:01:40;;;;;;;8.05;6.50;;;;;;;9.13;97.96;100258.72;1815254;79;25621;-70
2022/01/01 10:04:15;;;;;;;10.15;6.70;;;;;;;9.12;97.70;100257.91;1815249;79;28018;-70
2022/01/01 10:06:43;;;;;;;7.55;6.70;;;;;;;9.11;97.65;100256.32;1815312;79;25437;-71
2022/01/01 10:09:09;;;;;;;8.33;7.30;;;;;;;9.13;97.94;100257.37;1812358;79;25883;-71
2022/01/01 10:11:37;;;;;;;9.25;7.80;;;;;;;9.14;98.10;100255.73;1800549;79;26348;-70
2022/01/01 10:14:07;;;;;;;9.13;8.05;;;;;;;9.17;98.17;100254.31;1814747;78;25691;-71
2022/01/01 10:16:44;;;;;;;9.70;8.23;;;;;;;9.18;97.93;100261.32;1814826;79;27326;-71
2022/01/01 10:19:12;;;;;;;9.20;7.95;;;;;;;9.18;98.10;100264.02;1844048;77;25550;-70
2022/01/01 10:21:41;;;;;;;11.60;8.25;;;;;;;9.21;98.16;100262.61;1845717;77;25658;-71
2022/01/01 10:24:29;;;;;;;10.50;8.73;;;;;;;9.20;98.10;100256.42;1845471;77;25514;-71
2022/01/01 10:29:31;;;;;;;10.48;8.08;;;;;;;9.25;98.08;100256.88;1845697;77;27243;-72
2022/01/01 10:32:06;;;;;;;10.38;8.25;;;;;;;9.26;97.89;100244.44;1845564;77;25666;-72
2022/01/01 10:34:45;;;;;;;10.65;8.78;;;;;;;9.30;98.14;100264.87;1819166;77;25396;-71
2022/01/01 10:37:15;;;;;;;11.07;8.63;;;;;;;9.32;98.12;100270.20;1846096;77;25783;-72
2022/01/01 10:39:52;;;;;;;10.63;8.58;;;;;;;9.32;98.03;100274.25;1846095;77;25599;-71
2022/01/01 10:42:19;;;;;;;10.40;7.95;;;;;;;9.34;97.96;100282.05;1845908;77;27366;-72
2022/01/01 10:44:53;;;;;;;8.40;7.58;;;;;;;9.34;97.85;100269.91;1845781;77;25599;-71
2022/01/01 10:47:31;;;;;;;9.93;7.72;;;;;;;9.36;97.71;100273.09;1822146;77;26232;-70
2022/01/01 10:50:14;;;;;;;8.60;7.62;;;;;;;9.36;97.64;100281.19;1845452;77;25699;-71
2022/01/01 10:52:35;;;;;;;9.95;8.10;;;;;;;9.38;97.66;100270.92;1848189;77;25414;-71
2022/01/01 10:55:07;;;;;;;10.58;8.10;;;;;;;9.43;97.71;100282.14;1846037;77;27379;-72
2022/01/01 10:57:45;;;;;;;8.35;7.45;;;;;;;9.45;97.42;100290.73;1845900;77;25363;-72
2022/01/01 11:00:20;;;;;;;9.08;7.78;;;;;;;9.45;97.17;100289.38;1820138;77;25830;-69
2022/01/01 11:02:56;;;;;;;8.83;7.83;;;;;;;9.44;96.95;100297.25;1845813;77;25657;-71
2022/01/01 11:05:33;;;;;;;8.05;7.25;;;;;;;9.41;96.63;100304.04;1845878;77;26351;-71
2022/01/01 11:08:01;;;;;;;8.55;7.55;;;;;;;9.38;96.08;100304.66;1845971;77;27417;-72
2022/01/01 11:10:29;;;;;;;8.25;7.33;;;;;;;9.33;96.16;100314.19;1845851;77;25552;-71
2022/01/01 11:12:59;;;;;;;7.85;7.05;;;;;;;9.29;96.08;100311.84;1845917;77;25581;-72
2022/01/01 11:15:26;;;;;;;7.65;6.90;;;;;;;9.23;96.11;100308.45;1846082;77;26217;-73
2022/01/01 11:17:52;;;;;;;13.58;8.03;;;;;;;9.21;96.17;100312.00;1795084;77;25682;-72
2022/01/01 11:20:20;;;;;;;9.13;7.85;;;;;;;9.19;96.10;100323.62;1850066;77;27843;-72
2022/01/01 11:22:48;;;;;;;10.20;7.55;;;;;;;9.15;95.98;100323.42;1845631;77;25611;-71
2022/01/01 11:25:16;;;;;;;8.78;7.70;;;;;;;9.14;96.27;100323.72;1845874;77;25679;-71
2022/01/01 11:27:44;;;;;;;8.88;7.70;;;;;;;9.12;96.10;100321.87;1845843;77;25701;-71
2022/01/01 11:30:13;;;;;;;8.05;7.15;;;;;;;9.10;96.29;100328.13;1845868;77;25387;-71